Time;durP1;ratioP1;P1;durP2;ratioP2;P2;SDS_P1;SDS_P2;PMS_P1;PMS_P2;Temp;Humidity;BMP_temperature;BMP_pressure;BME280_temperature;BME280_humidity;BME280_pressure;Samples;Min_cycle;Max_cycle;Signal;HPM_P1;HPM_P2
2022/07/04 00:00:23;;;;;;;7.25;4.18;;;20.00;99.90;;;;;;5086670;28;20079;-73
2022/07/04 00:02:50;;;;;;;8.00;3.85;;;20.00;99.90;;;;;;5083332;28;20020;-74
2022/07/04 00:05:17;;;;;;;7.18;4.20;;;19.90;99.90;;;;;;5084380;28;20024;-74
2022/07/04 00:07:47;;;;;;;9.02;4.35;;;19.90;99.90;;;;;;5084825;28;20023;-74
2022/07/04 00:10:16;;;;;;;11.37;3.93;;;19.90;99.90;;;;;;5093678;28;20022;-74
2022/07/04 00:12:43;;;;;;;7.18;3.80;;;19.80;99.90;;;;;;5095673;28;20028;-74
2022/07/04 00:15:10;;;;;;;6.90;3.47;;;19.70;99.90;;;;;;5081547;28;20119;-74
2022/07/04 00:17:36;;;;;;;14.82;4.68;;;19.60;99.90;;;;;;5084249;28;20024;-74
2022/07/04 00:20:03;;;;;;;4.97;3.30;;;19.60;99.90;;;;;;5080663;28;20029;-74
2022/07/04 00:22:28;;;;;;;10.55;3.42;;;19.50;99.90;;;;;;5082719;28;20020;-74
2022/07/04 00:24:54;;;;;;;6.55;3.20;;;19.40;99.90;;;;;;5083770;28;20066;-72
2022/07/04 00:27:20;;;;;;;8.80;2.88;;;19.40;99.90;;;;;;5084832;28;20025;-72
2022/07/04 00:29:46;;;;;;;17.33;3.58;;;19.30;99.90;;;;;;5088250;28;20032;-73
2022/07/04 00:32:12;;;;;;;8.35;3.55;;;19.20;99.90;;;;;;5086774;28;20484;-73
2022/07/04 00:34:37;;;;;;;6.57;2.95;;;19.20;99.90;;;;;;5090587;28;20024;-73
2022/07/04 00:37:03;;;;;;;5.75;2.50;;;19.10;99.90;;;;;;5087689;28;20669;-72
2022/07/04 00:39:29;;;;;;;9.43;3.63;;;19.10;99.90;;;;;;5092873;28;20549;-73
2022/07/04 00:41:55;;;;;;;10.32;2.90;;;19.00;99.90;;;;;;5091916;28;20025;-72
2022/07/04 00:44:21;;;;;;;5.50;3.10;;;18.90;99.90;;;;;;5094521;28;20024;-72
2022/07/04 00:46:47;;;;;;;5.93;3.30;;;18.90;99.90;;;;;;5094548;28;20031;-72
2022/07/04 00:49:15;;;;;;;6.75;3.08;;;18.80;99.90;;;;;;5089239;28;20020;-72
2022/07/04 00:51:42;;;;;;;6.43;2.80;;;18.80;99.90;;;;;;5079465;28;20052;-74
2022/07/04 00:54:11;;;;;;;8.13;3.00;;;18.60;99.90;;;;;;5085472;28;20106;-72
2022/07/04 00:56:39;;;;;;;12.75;4.13;;;18.60;99.90;;;;;;5086247;28;20032;-72
2022/07/04 00:59:06;;;;;;;6.90;3.03;;;18.50;99.90;;;;;;5081647;28;20044;-72
2022/07/04 01:01:32;;;;;;;7.55;3.28;;;18.50;99.90;;;;;;5083982;28;20070;-72
2022/07/04 01:03:58;;;;;;;5.07;2.83;;;18.50;99.90;;;;;;5085190;28;20099;-73
2022/07/04 01:06:24;;;;;;;6.57;3.17;;;18.50;99.90;;;;;;5085994;28;20044;-72
2022/07/04 01:08:50;;;;;;;6.43;2.88;;;18.40;99.90;;;;;;5087500;28;20054;-73
2022/07/04 01:11:16;;;;;;;5.43;2.78;;;18.40;99.90;;;;;;5092108;28;20017;-72
2022/07/04 01:13:43;;;;;;;14.98;3.38;;;18.30;99.90;;;;;;5086042;28;20047;-72
2022/07/04 01:16:10;;;;;;;7.53;3.08;;;18.30;99.90;;;;;;5087066;28;20113;-72
2022/07/04 01:18:37;;;;;;;5.95;2.88;;;18.20;99.90;;;;;;5078645;28;20025;-73
2022/07/04 01:21:03;;;;;;;9.10;3.45;;;18.20;99.90;;;;;;5082167;28;20024;-72
2022/07/04 01:23:29;;;;;;;8.80;3.50;;;18.20;99.90;;;;;;5080246;28;20048;-72
2022/07/04 01:25:57;;;;;;;4.78;2.83;;;18.10;99.90;;;;;;5084427;28;20012;-73
2022/07/04 01:28:24;;;;;;;6.38;3.63;;;18.10;99.90;;;;;;5084075;28;20021;-72
2022/07/04 01:30:50;;;;;;;10.88;2.97;;;18.10;99.90;;;;;;5086527;28;20024;-73
2022/07/04 01:33:19;;;;;;;6.97;2.90;;;18.00;99.90;;;;;;5087820;28;20028;-73
2022/07/04 01:35:46;;;;;;;9.30;3.13;;;18.00;99.90;;;;;;5089088;28;20108;-73
2022/07/04 01:38:12;;;;;;;5.35;3.17;;;18.00;99.90;;;;;;5089187;28;20050;-74
2022/07/04 01:40:38;;;;;;;8.90;2.85;;;17.90;99.90;;;;;;5089073;28;20450;-73
2022/07/04 01:43:04;;;;;;;5.13;2.53;;;17.90;99.90;;;;;;5092706;28;20020;-73
2022/07/04 01:45:33;;;;;;;12.43;3.00;;;17.80;99.90;;;;;;5092790;28;20030;-73
2022/07/04 01:47:59;;;;;;;3.92;2.70;;;17.80;99.90;;;;;;5096033;28;20031;-74
2022/07/04 01:50:25;;;;;;;8.45;3.05;;;17.80;99.90;;;;;;5077784;28;20079;-74
2022/07/04 01:52:50;;;;;;;8.82;3.35;;;17.70;99.90;;;;;;5080468;28;20032;-73
2022/07/04 01:55:16;;;;;;;5.25;3.25;;;17.60;99.90;;;;;;5084972;28;20488;-74
2022/07/04 01:57:42;;;;;;;14.18;2.90;;;17.60;99.90;;;;;;5083303;28;20108;-74
2022/07/04 02:02:55;;;;;;;7.65;3.42;;;17.50;99.90;;;;;;5085728;28;20103;-73
2022/07/04 02:05:22;;;;;;;8.60;3.78;;;17.50;99.90;;;;;;5092001;28;20509;-73
2022/07/04 02:07:48;;;;;;;10.80;4.15;;;17.50;99.90;;;;;;5086683;28;20033;-73
2022/07/04 02:10:14;;;;;;;12.18;3.22;;;17.40;99.90;;;;;;5095937;28;20012;-75
2022/07/04 02:15:25;;;;;;;6.88;3.33;;;17.40;99.90;;;;;;5095948;28;20026;-74
2022/07/04 02:17:51;;;;;;;5.20;2.53;;;17.30;99.90;;;;;;5085630;28;20024;-73
2022/07/04 02:20:17;;;;;;;6.68;3.70;;;17.30;99.90;;;;;;5080982;28;20028;-73
2022/07/04 02:22:43;;;;;;;6.47;3.10;;;17.30;99.90;;;;;;5086513;28;20464;-73
2022/07/04 02:25:11;;;;;;;10.88;2.90;;;17.30;99.90;;;;;;5084673;28;20447;-75
2022/07/04 02:27:37;;;;;;;6.15;3.03;;;17.30;99.90;;;;;;5089603;28;20016;-73
2022/07/04 02:30:04;;;;;;;13.52;5.13;;;17.30;99.90;;;;;;5087994;28;20064;-74
2022/07/04 02:32:30;;;;;;;12.35;4.20;;;17.30;99.90;;;;;;5091796;28;20024;-73
2022/07/04 02:34:56;;;;;;;8.48;3.30;;;17.20;99.90;;;;;;5092387;28;20068;-74
2022/07/04 02:37:22;;;;;;;6.20;3.75;;;17.20;99.90;;;;;;5091936;28;20020;-74
2022/07/04 02:39:47;;;;;;;15.57;4.72;;;17.20;99.90;;;;;;5094747;28;20047;-73
2022/07/04 02:42:13;;;;;;;6.53;3.40;;;17.20;99.90;;;;;;5093637;28;20073;-74
2022/07/04 02:44:39;;;;;;;8.48;3.35;;;17.10;99.90;;;;;;5097093;28;20016;-73
2022/07/04 02:47:05;;;;;;;8.95;3.67;;;17.10;99.90;;;;;;5096881;28;20020;-73
2022/07/04 02:49:31;;;;;;;6.38;3.17;;;17.10;99.90;;;;;;5097805;28;20020;-73
2022/07/04 02:51:56;;;;;;;8.52;3.50;;;17.10;99.90;;;;;;5083330;28;20138;-73
2022/07/04 02:54:22;;;;;;;6.93;3.63;;;17.10;99.90;;;;;;5080596;28;20017;-72
2022/07/04 02:56:49;;;;;;;9.23;3.17;;;17.10;99.90;;;;;;5084168;28;20051;-73
2022/07/04 02:59:15;;;;;;;13.57;3.40;;;17.10;99.90;;;;;;5082411;28;20546;-74
2022/07/04 03:01:41;;;;;;;7.35;3.10;;;17.10;99.90;;;;;;5086217;28;20548;-73
2022/07/04 03:04:07;;;;;;;9.23;3.83;;;17.10;99.90;;;;;;5085204;28;20016;-73
2022/07/04 03:06:32;;;;;;;5.97;3.65;;;17.00;99.90;;;;;;5088049;28;20095;-73
2022/07/04 03:08:58;;;;;;;3.83;3.10;;;17.00;99.90;;;;;;5088857;28;20480;-73
2022/07/04 03:11:24;;;;;;;11.15;3.55;;;16.90;99.90;;;;;;5095902;28;20028;-73
2022/07/04 03:13:50;;;;;;;7.35;4.15;;;16.90;99.90;;;;;;5098432;28;20043;-74
2022/07/04 03:16:16;;;;;;;8.23;3.50;;;16.90;99.90;;;;;;5091709;28;20028;-73
2022/07/04 03:18:41;;;;;;;9.82;3.58;;;16.90;99.90;;;;;;5080003;28;20025;-73
2022/07/04 03:21:08;;;;;;;8.40;3.88;;;16.90;99.90;;;;;;5081692;28;20115;-73
2022/07/04 03:23:34;;;;;;;5.88;3.28;;;16.80;99.90;;;;;;5081829;28;20051;-73
2022/07/04 03:26:01;;;;;;;11.07;4.40;;;16.80;99.90;;;;;;5120642;27;20051;-72
2022/07/04 03:28:27;;;;;;;8.00;4.32;;;16.80;99.90;;;;;;5096478;28;20023;-72
2022/07/04 03:30:53;;;;;;;8.40;3.28;;;16.80;99.90;;;;;;5090969;28;20115;-73
2022/07/04 03:33:19;;;;;;;8.85;3.67;;;16.80;99.90;;;;;;5080011;28;20017;-73
2022/07/04 03:35:45;;;;;;;11.70;3.90;;;16.80;99.90;;;;;;5094268;28;20032;-73
2022/07/04 03:38:11;;;;;;;11.35;4.15;;;16.80;99.90;;;;;;5094610;28;20028;-73
2022/07/04 03:40:38;;;;;;;9.02;3.63;;;16.80;99.90;;;;;;5093233;28;20057;-74
2022/07/04 03:43:06;;;;;;;7.82;4.32;;;16.80;99.90;;;;;;5097978;28;20023;-73
2022/07/04 03:45:32;;;;;;;14.30;4.80;;;16.80;99.90;;;;;;5096828;28;20027;-73
2022/07/04 03:47:59;;;;;;;6.03;3.75;;;16.80;99.90;;;;;;5086705;28;20028;-74
2022/07/04 03:50:24;;;;;;;24.08;5.13;;;16.80;99.90;;;;;;5080272;28;20090;-73
2022/07/04 03:52:51;;;;;;;10.25;5.28;;;16.80;99.90;;;;;;5078415;28;20025;-73
2022/07/04 03:55:16;;;;;;;9.05;4.80;;;16.80;99.90;;;;;;5083606;28;20028;-73
2022/07/04 03:57:42;;;;;;;6.30;3.83;;;16.80;99.90;;;;;;5080452;28;20048;-73
2022/07/04 04:00:09;;;;;;;8.13;3.92;;;16.80;99.90;;;;;;5094179;28;20550;-73
2022/07/04 04:02:36;;;;;;;8.32;4.32;;;16.80;99.90;;;;;;5084289;28;20481;-73
2022/07/04 04:07:47;;;;;;;8.75;4.00;;;16.70;99.90;;;;;;5086342;28;20465;-74
2022/07/04 04:10:13;;;;;;;26.13;4.55;;;16.70;99.90;;;;;;5091515;28;20082;-73
2022/07/04 04:12:39;;;;;;;10.95;4.57;;;16.70;99.90;;;;;;5090367;28;20020;-73
2022/07/04 04:15:05;;;;;;;8.55;3.95;;;16.70;99.90;;;;;;5093935;28;20032;-73
2022/07/04 04:17:31;;;;;;;6.88;4.88;;;16.70;99.90;;;;;;5094424;28;20016;-73
2022/07/04 04:19:57;;;;;;;6.70;4.32;;;16.70;99.90;;;;;;5084142;28;20028;-72
2022/07/04 04:22:23;;;;;;;8.48;4.95;;;16.70;99.90;;;;;;5083877;28;20549;-72
2022/07/04 04:24:49;;;;;;;11.25;4.47;;;16.70;99.90;;;;;;5078867;28;20028;-72
2022/07/04 04:27:14;;;;;;;14.65;5.68;;;16.70;99.90;;;;;;5079173;28;20024;-72
2022/07/04 04:29:40;;;;;;;8.75;4.22;;;16.70;99.90;;;;;;5082491;28;20027;-72
2022/07/04 04:32:07;;;;;;;7.47;4.10;;;16.70;99.90;;;;;;5081065;28;20020;-75
2022/07/04 04:34:33;;;;;;;8.40;3.70;;;16.70;99.90;;;;;;5095756;28;20020;-75
2022/07/04 04:37:00;;;;;;;12.15;4.05;;;16.70;99.90;;;;;;5085524;28;20040;-72
2022/07/04 04:39:26;;;;;;;15.32;5.05;;;16.80;99.90;;;;;;5092055;28;20028;-74
2022/07/04 04:41:52;;;;;;;7.65;3.63;;;16.80;99.90;;;;;;5088490;28;20021;-74
2022/07/04 04:44:19;;;;;;;12.93;4.28;;;16.90;99.90;;;;;;5093936;28;20601;-73
2022/07/04 04:46:45;;;;;;;13.07;4.45;;;16.90;99.90;;;;;;5092640;28;20035;-73
2022/07/04 04:49:11;;;;;;;7.95;4.28;;;17.00;99.90;;;;;;5095990;28;20435;-74
2022/07/04 04:51:38;;;;;;;12.10;4.13;;;17.00;99.90;;;;;;5095793;28;20087;-74
2022/07/04 04:54:04;;;;;;;8.75;4.32;;;17.10;99.90;;;;;;5089880;28;20024;-73
2022/07/04 04:56:30;;;;;;;8.07;4.68;;;17.10;99.90;;;;;;5079182;28;20099;-73
2022/07/04 04:58:56;;;;;;;14.55;5.28;;;17.10;99.90;;;;;;5080159;28;20025;-72
2022/07/04 05:01:21;;;;;;;12.45;4.78;;;17.10;99.90;;;;;;5079428;28;20378;-73
2022/07/04 05:03:47;;;;;;;9.70;4.40;;;17.10;99.90;;;;;;5084391;28;20021;-73
2022/07/04 05:06:13;;;;;;;8.95;4.30;;;17.10;99.90;;;;;;5083227;28;20013;-73
2022/07/04 05:08:39;;;;;;;11.63;5.07;;;17.20;99.90;;;;;;5088022;28;20472;-73
2022/07/04 05:11:05;;;;;;;11.48;4.65;;;17.20;99.90;;;;;;5085224;28;20025;-73
2022/07/04 05:13:31;;;;;;;7.55;5.07;;;17.20;99.90;;;;;;5091411;28;20028;-74
2022/07/04 05:15:57;;;;;;;13.38;6.00;;;17.20;99.90;;;;;;5087723;28;20012;-72
2022/07/04 05:18:23;;;;;;;8.73;4.97;;;17.30;99.90;;;;;;5093525;28;20035;-74
2022/07/04 05:20:49;;;;;;;11.63;4.93;;;17.30;99.90;;;;;;5091910;28;20087;-74
2022/07/04 05:23:15;;;;;;;8.43;5.13;;;17.30;99.90;;;;;;5095512;28;20020;-76
2022/07/04 05:25:41;;;;;;;13.88;5.55;;;17.40;99.90;;;;;;5096149;28;20016;-75
2022/07/04 05:28:07;;;;;;;14.02;5.05;;;17.40;99.90;;;;;;5100206;28;20404;-75
2022/07/04 05:30:33;;;;;;;9.23;4.47;;;17.50;99.90;;;;;;5098745;28;20027;-74
2022/07/04 05:33:00;;;;;;;8.85;4.60;;;17.50;99.90;;;;;;5100047;28;20035;-75
2022/07/04 05:35:27;;;;;;;11.80;4.80;;;17.60;99.90;;;;;;5098855;28;20016;-76
2022/07/04 05:37:53;;;;;;;11.73;4.90;;;17.60;99.90;;;;;;5099884;28;20117;-74
2022/07/04 05:40:21;;;;;;;8.13;4.90;;;17.70;99.90;;;;;;5098786;28;20127;-76
2022/07/04 05:42:48;;;;;;;11.25;4.57;;;17.70;99.90;;;;;;5100063;28;20016;-74
2022/07/04 05:45:14;;;;;;;12.13;4.57;;;17.80;99.90;;;;;;5099666;28;20008;-74
2022/07/04 05:47:40;;;;;;;7.40;3.95;;;17.90;99.90;;;;;;5100299;28;20078;-74
2022/07/04 05:50:06;;;;;;;10.45;4.65;;;17.90;99.90;;;;;;5099716;28;20123;-74
2022/07/04 05:52:32;;;;;;;10.60;5.47;;;18.00;99.90;;;;;;5099649;28;20024;-74
2022/07/04 05:54:58;;;;;;;7.93;4.25;;;18.10;99.90;;;;;;5098524;28;20106;-74
2022/07/04 05:57:23;;;;;;;7.70;4.43;;;18.10;99.90;;;;;;5099560;28;20391;-74
2022/07/04 05:59:50;;;;;;;8.05;4.90;;;18.20;99.90;;;;;;5099600;28;20009;-73
2022/07/04 06:02:16;;;;;;;8.05;3.78;;;18.40;99.90;;;;;;5099696;28;20463;-75
2022/07/04 06:04:43;;;;;;;10.85;4.32;;;18.50;99.90;;;;;;5099569;28;20012;-76
2022/07/04 06:07:09;;;;;;;19.08;4.63;;;18.60;99.90;;;;;;5098297;28;20024;-74
2022/07/04 06:09:35;;;;;;;8.55;4.68;;;18.60;99.90;;;;;;5098231;28;20129;-76
2022/07/04 06:12:02;;;;;;;9.40;4.22;;;18.60;99.90;;;;;;5099644;28;20020;-74
2022/07/04 06:14:28;;;;;;;9.63;3.80;;;18.60;99.90;;;;;;5099085;28;20024;-76
2022/07/04 06:16:53;;;;;;;13.98;4.30;;;18.50;99.90;;;;;;5099250;28;20035;-74
2022/07/04 06:19:19;;;;;;;10.98;4.47;;;18.40;99.90;;;;;;5097088;28;20035;-75
2022/07/04 06:21:45;;;;;;;10.73;4.28;;;18.40;99.90;;;;;;5098403;28;20020;-75
2022/07/04 06:24:11;;;;;;;11.43;5.05;;;18.40;99.90;;;;;;5095779;28;20035;-76
2022/07/04 06:26:37;;;;;;;8.02;3.95;;;18.50;99.90;;;;;;5095254;28;20553;-75
2022/07/04 06:29:03;;;;;;;8.23;3.72;;;18.60;99.90;;;;;;5090341;28;20016;-75
2022/07/04 06:31:28;;;;;;;7.43;3.63;;;18.70;99.90;;;;;;5093754;28;20480;-76
2022/07/04 06:36:38;;;;;;;9.30;4.18;;;18.80;99.90;;;;;;5094631;28;20399;-77
2022/07/04 06:39:04;;;;;;;10.07;3.60;;;18.80;99.90;;;;;;5092231;28;20106;-77
2022/07/04 06:41:30;;;;;;;11.75;4.10;;;18.80;99.90;;;;;;5082758;28;20023;-75
2022/07/04 06:43:56;;;;;;;10.52;3.33;;;18.80;99.90;;;;;;5096591;28;20084;-75
2022/07/04 06:46:22;;;;;;;9.32;3.65;;;18.80;99.90;;;;;;5089158;28;20021;-74
2022/07/04 06:48:48;;;;;;;20.35;4.30;;;18.90;99.90;;;;;;5087142;28;20305;-76
2022/07/04 06:51:14;;;;;;;8.93;3.55;;;19.00;99.90;;;;;;5098597;28;20083;-76
2022/07/04 06:53:45;;;;;;;9.25;3.97;;;19.10;99.90;;;;;;5096782;28;20012;-73
2022/07/04 06:56:11;;;;;;;10.90;3.72;;;19.30;99.90;;;;;;5098592;28;20077;-76
2022/07/04 06:58:37;;;;;;;14.30;3.95;;;19.40;99.90;;;;;;5097808;28;20370;-75
2022/07/04 07:01:03;;;;;;;6.50;3.55;;;19.50;99.90;;;;;;5099002;28;20050;-75
2022/07/04 07:03:29;;;;;;;9.90;3.38;;;19.60;99.90;;;;;;5094738;28;20012;-74
2022/07/04 07:05:56;;;;;;;5.90;4.10;;;19.70;99.90;;;;;;5093595;28;20064;-75
2022/07/04 07:08:22;;;;;;;9.05;3.53;;;19.90;99.90;;;;;;5092439;28;20027;-74
2022/07/04 07:10:48;;;;;;;6.88;3.70;;;19.90;99.90;;;;;;5078170;28;20040;-74
2022/07/04 07:13:14;;;;;;;6.40;3.63;;;20.00;99.90;;;;;;5081446;28;20397;-75
2022/07/04 07:15:40;;;;;;;5.95;3.05;;;20.10;99.90;;;;;;5088587;28;20032;-74
2022/07/04 07:18:06;;;;;;;12.00;4.03;;;20.10;99.90;;;;;;5087381;28;20500;-75
2022/07/04 07:20:32;;;;;;;9.57;3.47;;;20.10;99.90;;;;;;5082977;28;20035;-73
2022/07/04 07:23:01;;;;;;;10.80;3.60;;;20.00;99.90;;;;;;5088054;28;20028;-74
2022/07/04 07:25:27;;;;;;;9.55;3.67;;;19.90;99.90;;;;;;5085431;28;20020;-73
2022/07/04 07:27:52;;;;;;;6.38;2.95;;;20.00;99.90;;;;;;5090340;28;20020;-74
2022/07/04 07:30:18;;;;;;;9.68;3.47;;;19.90;99.90;;;;;;5088759;28;20443;-74
2022/07/04 07:32:44;;;;;;;8.07;3.22;;;19.80;99.90;;;;;;5094758;28;20081;-74
2022/07/04 07:35:10;;;;;;;8.38;3.30;;;19.80;99.90;;;;;;5095042;28;20024;-73
2022/07/04 07:37:36;;;;;;;6.40;3.28;;;19.90;99.90;;;;;;5095768;28;20034;-74
2022/07/04 07:40:02;;;;;;;9.55;3.45;;;20.00;99.90;;;;;;5097965;28;20549;-76
2022/07/04 07:42:28;;;;;;;13.98;3.88;;;20.10;99.90;;;;;;5078723;28;20021;-73
2022/07/04 07:44:54;;;;;;;6.55;3.30;;;20.20;99.90;;;;;;5079638;28;20378;-73
2022/07/04 07:47:20;;;;;;;6.95;3.03;;;20.20;99.90;;;;;;5097832;28;20020;-72
2022/07/04 07:49:47;;;;;;;8.15;2.75;;;20.20;99.90;;;;;;5094211;28;20047;-75
2022/07/04 07:52:14;;;;;;;7.68;3.05;;;20.30;99.90;;;;;;5089998;28;20019;-72
2022/07/04 07:54:40;;;;;;;12.80;3.92;;;20.30;99.90;;;;;;5089878;28;20153;-75
2022/07/04 07:57:06;;;;;;;11.18;3.35;;;20.40;99.90;;;;;;5079925;28;20047;-73
2022/07/04 07:59:32;;;;;;;12.80;3.10;;;20.50;99.90;;;;;;5078064;28;20020;-73
2022/07/04 08:01:57;;;;;;;6.60;2.70;;;20.70;99.90;;;;;;5084184;28;20416;-73
2022/07/04 08:04:35;;;;;;;8.50;2.65;;;20.80;99.90;;;;;;5089141;28;20029;-74
2022/07/04 08:07:04;;;;;;;7.57;2.97;;;20.90;99.90;;;;;;5082723;28;20022;-74
2022/07/04 08:09:31;;;;;;;7.43;3.03;;;21.00;99.90;;;;;;5083235;28;20028;-75
2022/07/04 08:11:58;;;;;;;17.92;4.18;;;21.10;99.90;;;;;;5090039;28;20028;-74
2022/07/04 08:14:24;;;;;;;7.57;3.17;;;21.10;99.90;;;;;;5086685;28;20021;-73
2022/07/04 08:16:49;;;;;;;8.60;2.83;;;21.00;99.90;;;;;;5092702;28;20051;-74
2022/07/04 08:19:15;;;;;;;9.82;2.75;;;21.00;99.90;;;;;;5092583;28;20028;-73
2022/07/04 08:21:41;;;;;;;8.00;2.80;;;21.00;99.90;;;;;;5094325;28;20023;-72
2022/07/04 08:24:07;;;;;;;9.40;2.75;;;21.00;99.90;;;;;;5093717;28;20386;-73
2022/07/04 08:26:33;;;;;;;8.43;3.03;;;21.10;99.90;;;;;;5097279;28;20022;-75
2022/07/04 08:28:59;;;;;;;10.45;3.47;;;21.20;99.90;;;;;;5083325;28;20032;-73
2022/07/04 08:31:26;;;;;;;9.90;3.05;;;21.20;99.90;;;;;;5077861;28;20021;-74
2022/07/04 08:33:52;;;;;;;7.82;3.22;;;21.40;99.90;;;;;;5081074;28;20059;-73
2022/07/04 08:36:19;;;;;;;7.13;3.72;;;21.40;99.90;;;;;;5080505;28;20028;-73
2022/07/04 08:38:44;;;;;;;10.95;3.35;;;21.40;99.90;;;;;;5082717;28;20033;-74
2022/07/04 08:41:11;;;;;;;10.00;4.07;;;21.20;99.90;;;;;;5085221;28;20027;-74
2022/07/04 08:43:39;;;;;;;10.02;3.92;;;21.10;99.90;;;;;;5084544;28;20025;-75
2022/07/04 08:46:05;;;;;;;14.38;4.22;;;21.10;99.90;;;;;;5086432;28;20028;-72
2022/07/04 08:48:33;;;;;;;11.02;4.00;;;21.50;99.90;;;;;;5096777;28;20028;-74
2022/07/04 08:51:14;;;;;;;9.18;3.38;;;21.50;99.90;;;;;;5093134;28;20051;-73
2022/07/04 08:53:51;;;;;;;12.52;3.85;;;21.50;99.90;;;;;;5080688;28;20059;-74
2022/07/04 08:59:05;;;;;;;5.97;3.78;;;21.80;99.90;;;;;;5084845;28;20035;-74
2022/07/04 09:01:31;;;;;;;9.82;4.40;;;21.70;99.90;;;;;;5084641;28;20187;-75
2022/07/04 09:03:57;;;;;;;11.20;4.72;;;21.70;99.90;;;;;;5085279;28;20020;-76
2022/07/04 09:06:24;;;;;;;15.05;7.90;;;21.70;99.90;;;;;;5095110;28;20161;-73
2022/07/04 09:08:51;;;;;;;13.93;5.50;;;22.00;99.90;;;;;;5089820;28;20024;-73
2022/07/04 09:11:18;;;;;;;11.50;4.25;;;22.10;99.90;;;;;;5086718;28;20093;-74
2022/07/04 09:13:44;;;;;;;13.35;4.45;;;22.20;99.90;;;;;;5090821;28;20060;-75
2022/07/04 09:16:10;;;;;;;13.45;4.05;;;22.30;99.90;;;;;;5082993;28;20070;-74
2022/07/04 09:18:37;;;;;;;11.23;4.45;;;22.50;99.90;;;;;;5088684;28;20057;-73
2022/07/04 09:21:08;;;;;;;9.40;3.97;;;22.90;99.90;;;;;;5092084;28;20438;-74
2022/07/04 09:23:39;;;;;;;16.15;5.22;;;23.20;99.90;;;;;;5085834;28;20027;-74
2022/07/04 09:26:13;;;;;;;;;;;23.10;99.90;;;;;;5087788;28;20104;-74
2022/07/04 09:28:51;;;;;;;12.82;5.00;;;23.10;99.90;;;;;;5087928;28;19935;-73
2022/07/04 09:31:19;;;;;;;10.38;5.80;;;22.80;99.90;;;;;;5090845;28;20023;-73
2022/07/04 09:33:49;;;;;;;10.75;4.82;;;22.70;99.90;;;;;;5089351;28;20657;-74
2022/07/04 09:36:18;;;;;;;9.00;5.32;;;22.50;99.90;;;;;;5092857;28;20176;-74
2022/07/04 09:38:45;;;;;;;9.00;4.95;;;22.50;99.90;;;;;;5091146;28;20024;-74
2022/07/04 09:41:26;;;;;;;10.95;5.45;;;22.50;99.90;;;;;;5075667;28;20042;-75
2022/07/04 09:44:05;;;;;;;9.98;4.60;;;22.60;99.90;;;;;;5078657;28;20028;-75
2022/07/04 09:46:33;;;;;;;10.52;4.75;;;22.60;99.90;;;;;;5079180;28;20032;-75
2022/07/04 09:48:59;;;;;;;13.10;5.38;;;22.50;99.90;;;;;;5087315;28;20084;-75
2022/07/04 09:51:39;;;;;;;13.43;4.97;;;22.60;99.90;;;;;;5095636;28;20117;-73
2022/07/04 09:54:22;;;;;;;11.98;4.90;;;22.70;99.90;;;;;;5090124;28;20048;-75
2022/07/04 09:56:55;;;;;;;13.80;4.75;;;22.80;99.90;;;;;;5084983;28;20028;-76
2022/07/04 09:59:22;;;;;;;11.70;4.60;;;22.60;99.90;;;;;;5094623;28;20024;-75
2022/07/04 10:01:49;;;;;;;9.20;5.10;;;22.30;99.90;;;;;;5095096;28;20205;-74
2022/07/04 10:04:15;;;;;;;8.82;4.78;;;22.20;99.90;;;;;;5083753;28;20017;-73
2022/07/04 10:06:43;;;;;;;11.00;5.28;;;22.50;99.90;;;;;;5091109;28;20490;-74
2022/07/04 10:09:17;;;;;;;8.13;4.88;;;22.80;99.90;;;;;;5078379;28;20033;-74
2022/07/04 10:11:46;;;;;;;8.15;4.70;;;22.90;99.90;;;;;;5082810;28;20024;-74
2022/07/04 10:14:13;;;;;;;10.95;4.82;;;23.20;99.90;;;;;;5082591;28;20032;-74
2022/07/04 10:16:40;;;;;;;10.55;5.00;;;23.30;99.90;;;;;;5090440;28;20059;-74
2022/07/04 10:19:08;;;;;;;8.07;4.63;;;23.40;99.90;;;;;;5086705;28;20017;-74
2022/07/04 10:21:34;;;;;;;7.38;4.63;;;23.30;99.90;;;;;;5093625;28;20129;-73
2022/07/04 10:24:03;;;;;;;7.82;4.65;;;23.40;99.90;;;;;;5094384;28;20027;-74
2022/07/04 10:26:30;;;;;;;8.40;4.53;;;23.20;99.90;;;;;;5096165;28;20245;-76
2022/07/04 10:28:56;;;;;;;7.38;4.35;;;23.20;99.90;;;;;;5094819;28;20020;-74
2022/07/04 10:31:25;;;;;;;11.70;5.30;;;23.40;99.90;;;;;;5096985;28;20061;-74
2022/07/04 10:33:52;;;;;;;5.97;3.95;;;23.50;99.90;;;;;;5098285;28;20031;-74
2022/07/04 10:36:20;;;;;;;10.73;4.68;;;23.40;99.90;;;;;;5099682;28;20057;-75
2022/07/04 10:39:06;;;;;;;9.57;4.60;;;23.50;99.90;;;;;;5084284;28;20472;-74
2022/07/04 10:41:32;;;;;;;8.40;4.50;;;23.80;99.90;;;;;;5080819;28;20037;-73
2022/07/04 10:44:07;;;;;;;7.40;4.75;;;24.00;99.90;;;;;;5085149;28;20059;-76
2022/07/04 10:46:35;;;;;;;12.70;4.50;;;24.00;99.90;;;;;;5081963;28;20025;-74
2022/07/04 10:49:16;;;;;;;10.02;4.55;;;24.40;99.90;;;;;;5083398;28;20027;-76
2022/07/04 10:51:43;;;;;;;9.57;4.85;;;24.70;99.90;;;;;;5087537;28;20060;-76
2022/07/04 10:54:22;;;;;;;10.35;4.30;;;24.60;99.90;;;;;;5090926;28;20039;-75
2022/07/04 10:56:56;;;;;;;7.88;4.30;;;24.20;99.90;;;;;;5094367;28;20016;-74
2022/07/04 10:59:28;;;;;;;5.40;4.07;;;24.10;99.90;;;;;;5098910;28;20396;-77
2022/07/04 11:02:09;;;;;;;8.57;3.83;;;24.00;99.90;;;;;;5095771;28;20081;-74
2022/07/04 11:04:51;;;;;;;9.20;3.88;;;24.10;99.90;;;;;;5086377;28;20065;-74
2022/07/04 11:07:36;;;;;;;9.05;4.50;;;24.20;99.90;;;;;;5095862;28;20157;-73
2022/07/04 11:10:16;;;;;;;5.30;3.60;;;24.40;99.90;;;;;;5074386;28;20407;-73
2022/07/04 11:12:56;;;;;;;15.45;4.15;;;24.40;99.90;;;;;;5084217;28;20023;-75
2022/07/04 11:15:28;;;;;;;11.75;4.10;;;24.60;99.90;;;;;;5085967;28;20031;-74
2022/07/04 11:17:54;;;;;;;6.78;4.15;;;24.40;99.90;;;;;;5087360;28;20031;-76
2022/07/04 11:20:22;;;;;;;5.53;3.40;;;24.50;99.90;;;;;;5082782;28;20037;-73
2022/07/04 11:22:48;;;;;;;5.90;3.50;;;24.70;99.90;;;;;;5087174;28;20480;-75
2022/07/04 11:25:15;;;;;;;8.70;3.53;;;24.80;99.90;;;;;;5084738;28;20143;-75
2022/07/04 11:27:41;;;;;;;5.25;3.13;;;24.90;99.90;;;;;;5089338;28;20116;-75
2022/07/04 11:30:09;;;;;;;6.35;2.97;;;24.80;99.90;;;;;;5094767;28;20369;-74
2022/07/04 11:32:36;;;;;;;3.40;2.72;;;24.80;99.90;;;;;;5097787;28;20016;-74
2022/07/04 11:35:05;;;;;;;6.82;3.03;;;24.90;99.90;;;;;;5098103;28;20020;-76
2022/07/04 11:37:31;;;;;;;6.50;3.20;;;25.00;99.90;;;;;;5082636;28;20019;-73
2022/07/04 11:45:49;;;;;;;8.60;3.28;;;26.10;99.90;;;;;;5088553;28;20035;-73
2022/07/04 11:48:26;;;;;;;8.32;2.45;;;26.00;99.90;;;;;;5091102;28;20012;-75
2022/07/04 11:50:53;;;;;;;7.00;3.45;;;26.10;99.90;;;;;;5083627;28;20135;-74
2022/07/04 11:53:19;;;;;;;6.07;2.92;;;26.10;99.90;;;;;;5084496;28;20111;-74
2022/07/04 11:55:56;;;;;;;5.80;2.90;;;26.00;99.90;;;;;;5092628;28;20464;-74
2022/07/04 11:58:22;;;;;;;10.65;3.47;;;25.80;99.90;;;;;;5089073;28;20891;-74
2022/07/04 12:00:48;;;;;;;6.95;2.83;;;25.90;99.90;;;;;;5094319;28;20119;-76
2022/07/04 12:03:14;;;;;;;7.20;2.97;;;26.00;99.90;;;;;;5094097;28;20046;-76
2022/07/04 12:05:40;;;;;;;5.07;2.78;;;25.80;99.90;;;;;;5096882;28;20027;-75
2022/07/04 12:08:07;;;;;;;7.03;3.10;;;25.60;99.90;;;;;;5096578;28;20027;-74
2022/07/04 12:10:34;;;;;;;4.97;2.58;;;25.60;99.90;;;;;;5096154;28;20070;-75
2022/07/04 12:13:09;;;;;;;8.30;3.42;;;25.60;99.90;;;;;;5093786;28;20027;-75
2022/07/04 12:15:40;;;;;;;5.82;2.55;;;25.80;99.90;;;;;;5097131;28;20046;-74
2022/07/04 12:18:19;;;;;;;6.10;3.03;;;26.00;99.90;;;;;;5095581;28;20103;-74
2022/07/04 12:20:46;;;;;;;5.60;3.63;;;26.00;99.90;;;;;;5096745;28;20483;-75
2022/07/04 12:23:12;;;;;;;4.45;3.10;;;25.80;99.90;;;;;;5095309;28;20012;-76
2022/07/04 12:25:39;;;;;;;7.72;3.22;;;25.80;99.90;;;;;;5095669;28;20032;-75
2022/07/04 12:28:09;;;;;;;8.20;2.83;;;25.90;99.90;;;;;;5097067;28;20062;-76
2022/07/04 12:30:56;;;;;;;7.30;3.00;;;26.10;99.90;;;;;;5094000;28;20024;-74
2022/07/04 12:33:24;;;;;;;6.32;2.92;;;26.50;99.90;;;;;;5081340;28;20032;-75
2022/07/04 12:36:02;;;;;;;5.45;2.85;;;26.60;99.90;;;;;;5084397;28;20031;-74
2022/07/04 12:38:27;;;;;;;4.78;2.72;;;26.70;99.90;;;;;;5083920;28;20553;-74
2022/07/04 12:40:56;;;;;;;8.48;3.15;;;26.70;99.90;;;;;;5090955;28;20027;-74
2022/07/04 12:43:24;;;;;;;3.65;2.65;;;26.80;99.90;;;;;;5087267;28;20013;-76
2022/07/04 12:45:55;;;;;;;6.70;3.00;;;27.10;99.90;;;;;;5091366;28;20021;-74
2022/07/04 12:48:29;;;;;;;9.52;2.83;;;27.10;99.90;;;;;;5093701;28;20492;-74
2022/07/04 12:51:11;;;;;;;6.85;3.35;;;27.30;99.90;;;;;;5095528;28;20052;-74
2022/07/04 12:53:42;;;;;;;5.50;2.75;;;27.20;99.90;;;;;;5093048;28;20031;-74
2022/07/04 12:56:08;;;;;;;;;;;27.30;99.90;;;;;;5085893;28;20034;-76
2022/07/04 12:58:34;;;;;;;6.05;3.08;;;27.30;99.90;;;;;;5095319;28;20414;-75
2022/07/04 13:01:00;;;;;;;5.38;2.97;;;27.10;99.90;;;;;;5092902;28;20016;-75
2022/07/04 13:03:26;;;;;;;8.48;2.97;;;27.10;99.90;;;;;;5092445;28;20026;-75